Terminal Aerodrome Forecast
Issued by NWS Upton, NY

Home | Current Version | Previous Version | Text Only | Print | Product List | Glossary On
Versions: 1 2 3 4 5 6 7 8 9 10 11 12 13 14 15 16 17 18 19 20 21 22 23 24 25 26 27
000
FTUS41 KOKX 290800 AAA
TAFJFK
TAF AMD
KJFK 290802Z 2908/3012 33010KT P6SM FEW040 BKN200
      TEMPO 2908/2911 33012G18KT
     FM291800 32009KT P6SM FEW035 BKN250
     FM300000 33008KT P6SM FEW040 BKN250
     FM300600 36009KT P6SM SCT120 BKN200=

USA.gov is the U.S. government's official web portal to all federal, state and local government web resources and services.